createdAt,value
2023-08-20T00:01:07.877Z,81.96
2023-08-20T00:06:28.187Z,82.32
2023-08-20T00:11:32.743Z,82.31
2023-08-20T00:16:37.777Z,82.40
2023-08-20T00:21:46.253Z,82.50
2023-08-20T00:26:51.065Z,82.71
2023-08-20T00:31:55.212Z,82.61
2023-08-20T00:37:00.770Z,82.83
2023-08-20T00:42:05.984Z,83.09
2023-08-20T00:47:11.131Z,82.94
2023-08-20T00:52:21.888Z,83.17
2023-08-20T00:57:28.785Z,83.11
2023-08-20T01:02:33.028Z,83.08
2023-08-20T01:08:18.446Z,83.34
2023-08-20T01:13:23.409Z,83.31
2023-08-20T01:18:28.837Z,83.54
2023-08-20T01:23:36.052Z,83.97
2023-08-20T01:28:41.991Z,84.08
2023-08-20T01:33:47.413Z,84.14
2023-08-20T01:38:53.075Z,84.15
2023-08-20T01:43:57.401Z,84.43
2023-08-20T01:49:02.027Z,84.50
2023-08-20T01:54:08.021Z,84.29
2023-08-20T01:59:12.631Z,84.09
2023-08-20T02:04:17.070Z,84.11
2023-08-20T02:09:22.769Z,84.37
2023-08-20T02:14:28.757Z,84.23
2023-08-20T02:19:33.490Z,84.02
2023-08-20T02:24:38.549Z,83.78
2023-08-20T02:29:42.680Z,83.68
2023-08-20T02:34:52.551Z,83.80
2023-08-20T02:39:56.891Z,83.85
2023-08-20T02:45:01.669Z,83.93
2023-08-20T02:50:07.202Z,84.38
2023-08-20T02:55:11.681Z,84.40
2023-08-20T03:00:17.235Z,84.18
2023-08-20T03:05:21.533Z,84.21
2023-08-20T03:10:25.767Z,84.07
2023-08-20T03:15:31.477Z,84.07
2023-08-20T03:20:36.949Z,83.82
2023-08-20T03:25:42.543Z,83.73
2023-08-20T03:30:47.871Z,83.58
2023-08-20T03:35:52.714Z,83.56
2023-08-20T03:40:57.977Z,83.88
2023-08-20T03:46:04.175Z,84.22
2023-08-20T03:51:08.509Z,84.33
2023-08-20T03:56:13.146Z,84.67
2023-08-20T04:01:17.572Z,84.61
2023-08-20T04:06:22.223Z,84.31
2023-08-20T04:11:28.013Z,84.21
2023-08-20T04:16:32.334Z,84.19
2023-08-20T04:21:36.786Z,84.58
2023-08-20T04:26:41.562Z,84.89
2023-08-20T04:31:46.944Z,84.96
2023-08-20T04:36:51.134Z,85.00
2023-08-20T04:41:59.066Z,84.94
2023-08-20T04:47:03.310Z,84.78
2023-08-20T04:52:07.857Z,84.68
2023-08-20T04:57:12.436Z,84.50
2023-08-20T05:02:16.914Z,84.14
2023-08-20T05:07:22.305Z,83.83
2023-08-20T05:12:27.120Z,83.36
2023-08-20T05:17:31.403Z,82.78
2023-08-20T05:22:36.617Z,82.28
2023-08-20T05:27:41.414Z,81.50
2023-08-20T05:32:46.237Z,80.96
2023-08-20T05:37:50.872Z,80.30
2023-08-20T05:42:55.429Z,79.89
2023-08-20T05:48:01.342Z,79.61
2023-08-20T05:53:05.823Z,79.24
2023-08-20T05:58:09.874Z,78.72
2023-08-20T06:03:15.343Z,78.18
2023-08-20T06:08:19.773Z,77.54
2023-08-20T06:13:24.563Z,77.04
2023-08-20T06:18:28.858Z,76.70
2023-08-20T06:23:44.153Z,76.19
2023-08-20T06:28:49.631Z,75.75
2023-08-20T06:33:54.074Z,74.86
2023-08-20T06:38:58.815Z,73.91
2023-08-20T06:44:04.956Z,73.46
2023-08-20T06:49:09.434Z,72.69
2023-08-20T06:54:13.904Z,72.15
2023-08-20T06:59:19.065Z,71.59
2023-08-20T07:04:23.698Z,70.99
2023-08-20T07:09:28.016Z,70.04
2023-08-20T07:14:32.567Z,69.72
2023-08-20T07:19:39.437Z,68.50
2023-08-20T07:24:43.902Z,68.01
2023-08-20T07:29:49.260Z,67.67
2023-08-20T07:34:54.088Z,66.32
2023-08-20T07:39:58.966Z,65.96
2023-08-20T07:45:04.973Z,65.04
2023-08-20T07:50:10.025Z,65.25
2023-08-20T07:55:15.273Z,64.38
2023-08-20T08:00:20.029Z,62.78
2023-08-20T08:05:24.806Z,62.50
2023-08-20T08:10:29.108Z,60.81
2023-08-20T08:15:33.958Z,59.01
2023-08-20T08:20:39.900Z,58.60
2023-08-20T08:25:44.189Z,58.51
2023-08-20T08:30:48.897Z,57.68
2023-08-20T08:35:53.448Z,57.48
2023-08-20T08:40:58.708Z,56.38
2023-08-20T08:46:08.624Z,55.92
2023-08-20T08:51:16.174Z,54.67
2023-08-20T08:56:20.551Z,52.72
2023-08-20T09:01:26.210Z,53.58
2023-08-20T09:06:48.359Z,52.75
2023-08-20T09:11:53.004Z,50.88
2023-08-20T09:17:03.454Z,50.44
2023-08-20T09:22:07.770Z,51.31
2023-08-20T09:27:14.020Z,50.40
2023-08-20T09:32:19.633Z,49.14
2023-08-20T09:37:26.103Z,48.12
2023-08-20T09:42:34.479Z,48.51
2023-08-20T09:47:43.964Z,48.43
2023-08-20T09:53:08.589Z,47.56
2023-08-20T09:58:13.725Z,47.20
2023-08-20T10:03:22.277Z,47.14
2023-08-20T10:08:28.969Z,46.63
2023-08-20T10:13:34.103Z,47.24
2023-08-20T10:18:39.596Z,48.94
2023-08-20T10:23:50.764Z,49.13
2023-08-20T10:29:41.079Z,47.56
2023-08-20T10:34:55.899Z,46.53
2023-08-20T10:40:00.865Z,46.58
2023-08-20T10:45:10.410Z,45.51
2023-08-20T10:50:19.426Z,45.22
2023-08-20T10:55:25.451Z,45.97
2023-08-20T11:00:31.932Z,46.64
2023-08-20T11:05:38.637Z,47.20
2023-08-20T11:10:43.062Z,46.99
2023-08-20T11:15:48.302Z,46.60
2023-08-20T11:20:53.076Z,45.71
2023-08-20T11:25:58.781Z,45.03
2023-08-20T11:31:04.483Z,45.37
2023-08-20T11:36:09.337Z,44.83
2023-08-20T11:41:13.932Z,43.07
2023-08-20T11:46:23.219Z,44.29
2023-08-20T11:51:28.427Z,44.98
2023-08-20T11:56:40.339Z,45.40
2023-08-20T12:01:52.584Z,44.60
2023-08-20T12:07:30.912Z,44.62
2023-08-20T12:12:36.626Z,44.01
2023-08-20T12:17:41.127Z,44.53
2023-08-20T12:22:45.833Z,43.41
2023-08-20T12:27:51.515Z,43.48
2023-08-20T12:32:57.408Z,43.40
2023-08-20T12:38:02.221Z,44.24
2023-08-20T12:43:07.733Z,43.80
2023-08-20T12:48:12.785Z,44.13
2023-08-20T12:53:17.243Z,43.81
2023-08-20T12:58:22.206Z,45.10
2023-08-20T13:03:27.231Z,44.63
2023-08-20T13:08:32.380Z,43.53
2023-08-20T13:13:37.689Z,42.63
2023-08-20T13:18:42.633Z,42.46
2023-08-20T13:23:46.863Z,42.37
2023-08-20T13:28:51.784Z,41.06
2023-08-20T13:33:56.332Z,40.17
2023-08-20T13:39:01.066Z,40.54
2023-08-20T13:44:05.769Z,40.41
2023-08-20T13:49:11.442Z,40.76
2023-08-20T13:54:15.733Z,41.87
2023-08-20T13:59:20.587Z,43.53
2023-08-20T14:04:25.156Z,44.63
2023-08-20T14:09:29.983Z,45.51
2023-08-20T14:14:34.538Z,46.15
2023-08-20T14:19:38.925Z,46.67
2023-08-20T14:24:43.853Z,46.82
2023-08-20T14:29:48.045Z,46.25
2023-08-20T14:34:52.902Z,46.54
2023-08-20T14:39:58.368Z,47.53
2023-08-20T14:45:05.509Z,47.24
2023-08-20T14:50:10.219Z,47.13
2023-08-20T14:55:15.095Z,46.49
2023-08-20T15:00:19.885Z,45.95
2023-08-20T15:05:24.064Z,47.74
2023-08-20T15:10:28.382Z,48.17
2023-08-20T15:15:33.662Z,47.40
2023-08-20T15:20:38.880Z,46.38
2023-08-20T15:25:43.038Z,46.26
2023-08-20T15:30:47.460Z,46.58
2023-08-20T15:35:51.843Z,46.42
2023-08-20T15:40:56.884Z,45.78
2023-08-20T15:46:01.458Z,45.16
2023-08-20T15:51:06.079Z,44.95
2023-08-20T15:56:10.614Z,44.80
2023-08-20T16:01:15.569Z,44.73
2023-08-20T16:06:19.778Z,44.56
2023-08-20T16:11:24.646Z,44.85
2023-08-20T16:16:29.041Z,45.25
2023-08-20T16:21:33.752Z,45.68
2023-08-20T16:26:39.096Z,46.31
2023-08-20T16:31:43.519Z,46.99
2023-08-20T16:36:48.115Z,47.83
2023-08-20T16:41:52.571Z,48.74
2023-08-20T16:46:57.081Z,49.58
2023-08-20T16:52:01.295Z,50.19
2023-08-20T16:57:06.079Z,50.85
2023-08-20T17:02:10.403Z,51.67
2023-08-20T17:07:14.953Z,52.67
2023-08-20T17:12:19.534Z,53.28
2023-08-20T17:17:30.833Z,54.16
2023-08-20T17:22:36.030Z,55.19
2023-08-20T17:27:40.604Z,56.03
2023-08-20T17:32:45.093Z,56.85
2023-08-20T17:37:50.101Z,57.53
2023-08-20T17:42:54.931Z,58.12
2023-08-20T17:47:59.959Z,58.61
2023-08-20T17:53:06.163Z,59.28
2023-08-20T17:58:10.296Z,60.12
2023-08-20T18:03:15.936Z,60.78
2023-08-20T18:08:20.265Z,61.26
2023-08-20T18:13:24.232Z,61.67
2023-08-20T18:18:30.101Z,61.92
2023-08-20T18:23:34.893Z,61.99
2023-08-20T18:28:41.917Z,62.11
2023-08-20T18:33:47.338Z,62.53
2023-08-20T18:38:52.190Z,62.98
2023-08-20T18:43:56.413Z,63.33
2023-08-20T18:49:00.694Z,63.72
2023-08-20T18:54:05.517Z,64.26
2023-08-20T18:59:10.045Z,64.88
2023-08-20T19:04:14.799Z,65.10
2023-08-20T19:09:19.625Z,65.64
2023-08-20T19:14:25.242Z,66.39
2023-08-20T19:19:30.674Z,67.05
2023-08-20T19:24:35.536Z,67.64
2023-08-20T19:29:41.096Z,67.94
2023-08-20T19:34:46.070Z,68.12
2023-08-20T19:39:50.389Z,68.04
2023-08-20T19:44:55.349Z,68.14
2023-08-20T19:50:00.242Z,68.51
2023-08-20T19:55:05.968Z,69.12
2023-08-20T20:00:17.603Z,69.50
2023-08-20T20:05:23.280Z,69.90
2023-08-20T20:10:29.135Z,70.58
2023-08-20T20:15:33.798Z,71.26
2023-08-20T20:20:39.232Z,71.68
2023-08-20T20:25:44.195Z,72.08
2023-08-20T20:30:48.870Z,72.35
2023-08-20T20:35:56.337Z,72.50
2023-08-20T20:41:00.678Z,72.75
2023-08-20T20:46:06.380Z,73.11
2023-08-20T20:51:11.411Z,73.47
2023-08-20T20:56:16.081Z,73.86
2023-08-20T21:01:22.540Z,73.93
2023-08-20T21:06:27.099Z,73.75
2023-08-20T21:11:31.436Z,73.93
2023-08-20T21:16:36.100Z,74.00
2023-08-20T21:21:42.865Z,73.86
2023-08-20T21:26:47.119Z,73.93
2023-08-20T21:31:51.962Z,74.08
2023-08-20T21:36:56.702Z,74.34
2023-08-20T21:42:01.082Z,74.70
2023-08-20T21:47:23.140Z,74.84
2023-08-20T21:52:28.563Z,74.95
2023-08-20T21:57:32.689Z,75.19
2023-08-20T22:02:37.247Z,75.36
2023-08-20T22:07:46.462Z,75.64
2023-08-20T22:12:50.643Z,76.00
2023-08-20T22:17:56.477Z,76.36
2023-08-20T22:23:01.049Z,76.70
2023-08-20T22:28:06.738Z,77.11
2023-08-20T22:33:10.992Z,77.50
2023-08-20T22:38:16.706Z,77.54
2023-08-20T22:43:20.868Z,77.54
2023-08-20T22:48:26.199Z,77.58
2023-08-20T22:53:31.899Z,77.64
2023-08-20T22:58:37.351Z,77.85
2023-08-20T23:03:41.590Z,77.86
2023-08-20T23:08:46.044Z,77.96
2023-08-20T23:13:53.636Z,77.99
2023-08-20T23:18:57.902Z,78.18
2023-08-20T23:24:02.490Z,78.29
2023-08-20T23:29:07.501Z,78.36
2023-08-20T23:34:12.396Z,78.43
2023-08-20T23:39:17.087Z,78.68
2023-08-20T23:44:21.573Z,78.74
2023-08-20T23:49:26.268Z,78.70
2023-08-20T23:54:30.933Z,78.77
2023-08-20T23:59:35.252Z,78.75
